Morada, California
Current Conditions -  °F | °C
As of 4:02 PM on Monday 22 Dec 2014 (Local Time) from KSCK Reporting Station
Few Clouds Few Clouds  
Wind Chill: 61°   Ceiling: Unl
Heat Index: 61°   Visibility: 10mi
Dew Point: 55°   Wind: 5mph
Humidity: 82%   Direction: 330°NNW
Pressure: 30.17"   Gusts: NA
Location:  38.0455°N, 121.227°W
Report Text: KSCK 230002Z 33004KT 10SM FEW017 16/13 A3017 RMK AO2
Loading
Personal Weather Stations






























Interactive Weather Map New forecast layout! Learn more

10-Day Weather Forecast

Advertisements
Track Severe Weather on mobile